createdAt,value
2022-08-01T00:00:10.816Z,85.59
2022-08-01T00:01:10.820Z,85.59
2022-08-01T00:02:10.816Z,86.29
2022-08-01T00:03:10.806Z,85.19
2022-08-01T00:04:10.769Z,85.39
2022-08-01T00:05:10.774Z,86.19
2022-08-01T00:06:10.755Z,86.19
2022-08-01T00:07:10.730Z,86.43
2022-08-01T00:08:10.719Z,86.13
2022-08-01T00:09:10.695Z,86.53
2022-08-01T00:10:11.724Z,86.63
2022-08-01T00:11:10.686Z,87.13
2022-08-01T00:12:11.009Z,87.13
2022-08-01T00:13:10.665Z,87.34
2022-08-01T00:14:10.663Z,87.43
2022-08-01T00:15:10.629Z,87.23
2022-08-01T00:16:10.627Z,87.83
2022-08-01T00:17:10.605Z,88.13
2022-08-01T00:18:10.595Z,87.93
2022-08-01T00:19:10.568Z,87.93
2022-08-01T00:20:10.576Z,87.83
2022-08-01T00:21:10.567Z,87.89
2022-08-01T00:22:10.522Z,87.69
2022-08-01T00:23:10.541Z,87.69
2022-08-01T00:24:15.425Z,87.69
2022-08-01T00:25:11.505Z,87.89
2022-08-01T00:26:10.501Z,87.73
2022-08-01T00:27:10.490Z,88.13
2022-08-01T00:28:10.469Z,88.13
2022-08-01T00:30:01.135Z,88.33
2022-08-01T00:30:14.629Z,87.73
2022-08-01T00:31:10.446Z,88.03
2022-08-01T00:32:10.402Z,88.53
2022-08-01T00:33:10.433Z,88.23
2022-08-01T00:34:10.393Z,88.23
2022-08-01T00:35:10.396Z,87.63
2022-08-01T00:36:10.387Z,87.53
2022-08-01T00:37:10.356Z,87.63
2022-08-01T00:38:11.341Z,87.03
2022-08-01T00:39:10.311Z,87.43
2022-08-01T00:40:10.302Z,87.63
2022-08-01T00:41:10.322Z,87.34
2022-08-01T00:42:10.291Z,88.03
2022-08-01T00:43:10.293Z,87.27
2022-08-01T00:44:10.275Z,86.98
2022-08-01T00:45:10.262Z,87.37
2022-08-01T00:46:10.263Z,87.18
2022-08-01T00:47:10.217Z,87.07
2022-08-01T00:48:10.209Z,86.68
2022-08-01T00:49:10.547Z,86.87
2022-08-01T00:50:10.173Z,86.77
2022-08-01T00:51:10.160Z,86.77
2022-08-01T00:52:10.149Z,86.27
2022-08-01T00:53:10.162Z,86.57
2022-08-01T00:54:11.121Z,86.41
2022-08-01T00:55:10.119Z,86.91
2022-08-01T00:56:10.114Z,86.71
2022-08-01T00:57:10.878Z,86.52
2022-08-01T00:58:10.095Z,86.32
2022-08-01T00:59:10.072Z,86.01
2022-08-01T01:00:10.065Z,86.11
2022-08-01T01:01:10.079Z,86.71
2022-08-01T01:02:15.398Z,86.52
2022-08-01T01:03:11.020Z,86.32
2022-08-01T01:04:09.990Z,86.01
2022-08-01T01:05:09.993Z,86.01
2022-08-01T01:06:09.979Z,86.01
2022-08-01T01:07:09.972Z,85.91
2022-08-01T01:08:09.983Z,86.61
2022-08-01T01:09:09.927Z,86.11
2022-08-01T01:10:09.929Z,86.11
2022-08-01T01:11:09.913Z,86.11
2022-08-01T01:12:09.905Z,85.91
2022-08-01T01:13:09.910Z,86.01
2022-08-01T01:14:09.892Z,86.01
2022-08-01T01:15:09.851Z,85.91
2022-08-01T01:16:09.852Z,86.11
2022-08-01T01:17:09.857Z,86.21
2022-08-01T01:18:09.811Z,86.32
2022-08-01T01:19:09.832Z,86.11
2022-08-01T01:20:09.813Z,86.11
2022-08-01T01:21:09.793Z,86.21
2022-08-01T01:22:09.761Z,86.32
2022-08-01T01:23:09.763Z,86.41
2022-08-01T01:24:09.771Z,86.21
2022-08-01T01:25:09.747Z,86.11
2022-08-01T01:26:09.717Z,85.87
2022-08-01T01:27:09.698Z,85.41
2022-08-01T01:28:09.682Z,85.47
2022-08-01T01:29:09.680Z,85.77
2022-08-01T01:30:09.683Z,85.47
2022-08-01T01:31:10.993Z,85.51
2022-08-01T01:32:09.650Z,85.41
2022-08-01T01:33:09.631Z,85.51
2022-08-01T01:34:09.629Z,85.68
2022-08-01T01:35:09.606Z,85.31
2022-08-01T01:36:11.713Z,85.21
2022-08-01T01:37:09.575Z,85.51
2022-08-01T01:38:09.563Z,85.61
2022-08-01T01:39:09.558Z,85.61
2022-08-01T01:40:09.545Z,85.21
2022-08-01T01:41:09.530Z,85.41
2022-08-01T01:42:09.513Z,85.31
2022-08-01T01:43:09.502Z,85.41
2022-08-01T01:44:09.498Z,85.71
2022-08-01T01:45:09.466Z,85.82
2022-08-01T01:46:09.449Z,85.61
2022-08-01T01:47:09.452Z,85.41
2022-08-01T01:48:09.453Z,85.71
2022-08-01T01:49:09.517Z,85.61
2022-08-01T01:50:09.409Z,85.71
2022-08-01T01:51:09.414Z,85.91
2022-08-01T01:52:09.530Z,85.82
2022-08-01T01:53:15.131Z,85.82
2022-08-01T01:54:10.373Z,86.11
2022-08-01T01:55:09.331Z,85.82
2022-08-01T01:56:09.320Z,85.71
2022-08-01T01:57:09.323Z,85.61
2022-08-01T01:58:09.299Z,85.51
2022-08-01T01:59:09.336Z,85.61
2022-08-01T02:00:09.300Z,85.71
2022-08-01T02:01:14.303Z,86.01
2022-08-01T02:02:10.956Z,85.91
2022-08-01T02:03:09.274Z,85.51
2022-08-01T02:04:09.230Z,85.41
2022-08-01T02:05:09.222Z,85.41
2022-08-01T02:06:09.188Z,85.51
2022-08-01T02:07:09.191Z,85.31
2022-08-01T02:08:09.172Z,85.41
2022-08-01T02:09:09.202Z,85.41
2022-08-01T02:10:09.137Z,85.51
2022-08-01T02:11:09.142Z,85.61
2022-08-01T02:12:09.240Z,85.61
2022-08-01T02:13:09.102Z,85.41
2022-08-01T02:14:09.091Z,85.31
2022-08-01T02:15:09.093Z,85.31
2022-08-01T02:16:09.060Z,85.21
2022-08-01T02:17:09.055Z,85.41
2022-08-01T02:18:09.031Z,85.51
2022-08-01T02:19:09.039Z,85.51
2022-08-01T02:20:09.008Z,85.51
2022-08-01T02:21:09.024Z,85.71
2022-08-01T02:22:09.014Z,85.41
2022-08-01T02:23:08.986Z,85.51
2022-08-01T02:24:08.969Z,85.31
2022-08-01T02:25:08.960Z,85.21
2022-08-01T02:26:11.377Z,85.61
2022-08-01T02:27:08.947Z,86.01
2022-08-01T02:28:08.912Z,85.61
2022-08-01T02:29:08.912Z,85.41
2022-08-01T02:30:08.892Z,85.41
2022-08-01T02:31:08.867Z,85.41
2022-08-01T02:32:08.939Z,85.31
2022-08-01T02:33:10.144Z,85.51
2022-08-01T02:34:09.857Z,85.51
2022-08-01T02:35:08.873Z,85.82
2022-08-01T02:36:31.475Z,85.71
2022-08-01T02:37:09.789Z,85.71
2022-08-01T02:38:08.781Z,85.91
2022-08-01T02:39:08.801Z,86.11
2022-08-01T02:40:08.766Z,85.91
2022-08-01T02:41:08.730Z,86.01
2022-08-01T02:42:08.997Z,86.01
2022-08-01T02:43:08.717Z,85.91
2022-08-01T02:44:08.759Z,86.01
2022-08-01T02:45:08.702Z,85.71
2022-08-01T02:46:08.669Z,86.01
2022-08-01T02:47:08.684Z,86.11
2022-08-01T02:48:08.661Z,86.32
2022-08-01T02:49:08.707Z,86.32
2022-08-01T02:50:08.633Z,86.11
2022-08-01T02:51:08.617Z,86.21
2022-08-01T02:52:09.111Z,85.91
2022-08-01T02:53:08.604Z,85.91
2022-08-01T02:54:08.567Z,86.01
2022-08-01T02:55:08.590Z,86.21
2022-08-01T02:56:08.560Z,86.21
2022-08-01T02:57:08.536Z,86.46
2022-08-01T02:58:08.542Z,86.52
2022-08-01T02:59:08.542Z,86.52
2022-08-01T03:00:08.506Z,86.11
2022-08-01T03:01:08.594Z,86.25
2022-08-01T03:02:09.006Z,86.21
2022-08-01T03:03:08.461Z,86.21
2022-08-01T03:04:08.472Z,86.35
2022-08-01T03:05:08.427Z,86.35
2022-08-01T03:06:08.430Z,86.55
2022-08-01T03:07:08.420Z,86.46
2022-08-01T03:08:14.613Z,86.66
2022-08-01T03:09:09.406Z,86.76
2022-08-01T03:10:08.372Z,86.55
2022-08-01T03:11:08.349Z,86.46
2022-08-01T03:12:08.721Z,86.46
2022-08-01T03:13:08.325Z,86.66
2022-08-01T03:14:08.321Z,86.66
2022-08-01T03:15:08.310Z,86.46
2022-08-01T03:16:08.287Z,86.35
2022-08-01T03:17:08.289Z,86.55
2022-08-01T03:18:08.258Z,86.46
2022-08-01T03:19:08.239Z,86.55
2022-08-01T03:20:08.249Z,86.55
2022-08-01T03:21:08.220Z,86.35
2022-08-01T03:22:08.551Z,86.55
2022-08-01T03:23:08.209Z,86.55
2022-08-01T03:24:08.191Z,86.46
2022-08-01T03:25:08.179Z,86.46
2022-08-01T03:26:08.170Z,86.46
2022-08-01T03:27:08.159Z,86.55
2022-08-01T03:28:08.129Z,86.46
2022-08-01T03:29:08.108Z,86.76
2022-08-01T03:30:08.106Z,86.76
2022-08-01T03:31:08.101Z,86.85
2022-08-01T03:32:08.484Z,86.76
2022-08-01T03:33:08.056Z,86.55
2022-08-01T03:34:08.051Z,86.55
2022-08-01T03:35:08.059Z,86.46
2022-08-01T03:36:08.044Z,86.46
2022-08-01T03:37:08.027Z,86.66
2022-08-01T03:38:16.468Z,86.55
2022-08-01T03:39:08.979Z,86.46
2022-08-01T03:40:07.987Z,86.35
2022-08-01T03:41:07.981Z,86.25
2022-08-01T03:42:08.217Z,86.55
2022-08-01T03:43:07.926Z,86.35
2022-08-01T03:44:07.931Z,86.35
2022-08-01T03:45:07.927Z,86.35
2022-08-01T03:46:08.901Z,86.55
2022-08-01T03:47:07.878Z,86.35
2022-08-01T03:48:07.862Z,86.32
2022-08-01T03:49:07.957Z,86.21
2022-08-01T03:50:12.242Z,86.25
2022-08-01T03:51:07.842Z,86.25
2022-08-01T03:52:08.220Z,86.16
2022-08-01T03:53:07.810Z,86.35
2022-08-01T03:54:07.776Z,86.46
2022-08-01T03:55:07.802Z,86.55
2022-08-01T03:56:07.771Z,86.66
2022-08-01T03:57:07.746Z,86.85
2022-08-01T03:58:09.868Z,86.55
2022-08-01T03:59:07.731Z,86.46
2022-08-01T04:00:07.723Z,86.46
2022-08-01T04:01:07.743Z,86.46
2022-08-01T04:02:08.836Z,86.55
2022-08-01T04:03:07.694Z,86.55
2022-08-01T04:04:07.661Z,86.55
2022-08-01T04:05:07.682Z,86.55
2022-08-01T04:06:07.649Z,86.35
2022-08-01T04:07:07.630Z,86.55
2022-08-01T04:08:07.627Z,86.55
2022-08-01T04:09:12.816Z,86.46
2022-08-01T04:10:08.611Z,86.55
2022-08-01T04:11:07.581Z,86.66
2022-08-01T04:12:12.125Z,86.55
2022-08-01T04:13:08.537Z,86.55
2022-08-01T04:14:08.636Z,86.76
2022-08-01T04:15:07.528Z,86.85
2022-08-01T04:16:07.506Z,86.76
2022-08-01T04:17:07.492Z,86.55
2022-08-01T04:18:07.483Z,86.76
2022-08-01T04:19:07.456Z,86.66
2022-08-01T04:20:07.470Z,86.55
2022-08-01T04:21:07.450Z,86.76
2022-08-01T04:22:07.735Z,86.66
2022-08-01T04:23:07.407Z,86.76
2022-08-01T04:24:07.398Z,86.71
2022-08-01T04:25:07.430Z,86.61
2022-08-01T04:26:07.392Z,86.91
2022-08-01T04:27:07.369Z,86.82
2022-08-01T04:28:07.362Z,86.82
2022-08-01T04:29:07.348Z,86.91
2022-08-01T04:30:07.329Z,86.61
2022-08-01T04:31:07.325Z,86.61
2022-08-01T04:32:07.712Z,86.61
2022-08-01T04:33:07.276Z,86.85
2022-08-01T04:34:07.289Z,86.76
2022-08-01T04:35:22.486Z,86.85
2022-08-01T04:36:08.265Z,86.96
2022-08-01T04:37:07.224Z,87.05
2022-08-01T04:38:07.248Z,87.16
2022-08-01T04:39:07.195Z,87.16
2022-08-01T04:40:07.200Z,87.16
2022-08-01T04:41:09.118Z,87.16
2022-08-01T04:42:07.570Z,87.16
2022-08-01T04:43:07.172Z,87.16
2022-08-01T04:44:07.196Z,87.21
2022-08-01T04:45:07.124Z,87.21
2022-08-01T04:46:07.156Z,87.12
2022-08-01T04:47:07.086Z,87.26
2022-08-01T04:48:07.098Z,87.26
2022-08-01T04:49:07.142Z,87.46
2022-08-01T04:50:07.071Z,87.46
2022-08-01T04:51:07.068Z,87.46
2022-08-01T04:52:07.333Z,87.36
2022-08-01T04:53:07.027Z,87.46
2022-08-01T04:54:07.018Z,87.66
2022-08-01T04:55:07.006Z,87.66
2022-08-01T04:56:07.013Z,87.76
2022-08-01T04:57:06.976Z,87.52
2022-08-01T04:58:06.965Z,87.62
2022-08-01T04:59:06.953Z,87.41
2022-08-01T05:00:06.949Z,87.32
2022-08-01T05:01:06.992Z,87.32
2022-08-01T05:02:07.353Z,87.32
2022-08-01T05:03:06.906Z,87.02
2022-08-01T05:04:06.885Z,87.21
2022-08-01T05:05:06.864Z,87.32
2022-08-01T05:06:06.876Z,87.21
2022-08-01T05:07:06.833Z,87.46
2022-08-01T05:08:06.824Z,87.62
2022-08-01T05:09:06.816Z,87.52
2022-08-01T05:10:06.878Z,87.46
2022-08-01T05:11:06.818Z,87.55
2022-08-01T05:12:07.165Z,87.55
2022-08-01T05:13:06.778Z,87.66
2022-08-01T05:14:06.757Z,87.76
2022-08-01T05:15:09.516Z,87.86
2022-08-01T05:16:07.762Z,87.96
2022-08-01T05:17:06.713Z,88.06
2022-08-01T05:18:07.742Z,88.16
2022-08-01T05:19:06.699Z,88.26
2022-08-01T05:20:06.676Z,88.16
2022-08-01T05:21:06.680Z,87.96
2022-08-01T05:22:07.042Z,88.06
2022-08-01T05:23:06.644Z,88.06
2022-08-01T05:24:06.636Z,88.06
2022-08-01T05:25:06.621Z,87.96
2022-08-01T05:26:06.614Z,87.76
2022-08-01T05:27:06.575Z,87.62
2022-08-01T05:28:06.591Z,87.71
2022-08-01T05:29:06.575Z,87.71
2022-08-01T05:30:06.560Z,87.71
2022-08-01T05:31:06.552Z,87.62
2022-08-01T05:32:06.975Z,87.52
2022-08-01T05:33:06.518Z,87.62
2022-08-01T05:34:06.491Z,87.52
2022-08-01T05:35:07.487Z,87.52
2022-08-01T05:36:06.494Z,87.62
2022-08-01T05:37:06.458Z,87.82
2022-08-01T05:38:06.457Z,87.82
2022-08-01T05:39:07.445Z,87.62
2022-08-01T05:40:06.413Z,87.52
2022-08-01T05:41:06.411Z,87.41
2022-08-01T05:42:06.777Z,87.32
2022-08-01T05:43:06.386Z,87.32
2022-08-01T05:44:06.377Z,87.41
2022-08-01T05:45:06.363Z,87.52
2022-08-01T05:46:06.367Z,87.32
2022-08-01T05:47:06.322Z,87.32
2022-08-01T05:48:06.318Z,87.12
2022-08-01T05:49:06.354Z,87.21
2022-08-01T05:50:06.305Z,87.32
2022-08-01T05:51:06.283Z,87.32
2022-08-01T05:52:06.528Z,87.32
2022-08-01T05:53:06.245Z,87.21
2022-08-01T05:54:06.222Z,87.41
2022-08-01T05:55:06.214Z,87.52
2022-08-01T05:56:06.267Z,87.32
2022-08-01T05:57:06.196Z,87.41
2022-08-01T05:58:06.195Z,87.21
2022-08-01T05:59:06.170Z,87.21
2022-08-01T06:00:06.144Z,87.21
2022-08-01T06:01:06.166Z,87.12
2022-08-01T06:02:06.494Z,87.21
2022-08-01T06:03:06.125Z,86.98
2022-08-01T06:04:06.103Z,86.77
2022-08-01T06:05:09.063Z,86.77
2022-08-01T06:06:07.090Z,86.57
2022-08-01T06:07:06.069Z,86.37
2022-08-01T06:08:06.065Z,86.18
2022-08-01T06:09:06.033Z,86.37
2022-08-01T06:10:06.025Z,86.07
2022-08-01T06:11:06.013Z,85.97
2022-08-01T06:12:06.339Z,85.97
2022-08-01T06:13:05.986Z,85.87
2022-08-01T06:14:06.005Z,85.97
2022-08-01T06:15:05.966Z,85.97
2022-08-01T06:16:05.975Z,85.97
2022-08-01T06:17:05.922Z,85.97
2022-08-01T06:18:05.914Z,86.18
2022-08-01T06:19:05.916Z,85.57
2022-08-01T06:20:05.889Z,85.68
2022-08-01T06:21:05.897Z,85.68
2022-08-01T06:22:06.164Z,85.87
2022-08-01T06:23:28.516Z,85.87
2022-08-01T06:24:06.838Z,86.27
2022-08-01T06:25:05.811Z,86.18
2022-08-01T06:26:05.844Z,85.68
2022-08-01T06:27:05.934Z,85.77
2022-08-01T06:28:06.795Z,85.57
2022-08-01T06:29:05.772Z,85.87
2022-08-01T06:30:05.774Z,85.68
2022-08-01T06:31:05.752Z,85.57
2022-08-01T06:32:05.991Z,85.68
2022-08-01T06:33:05.744Z,85.77
2022-08-01T06:34:05.725Z,85.77
2022-08-01T06:35:05.692Z,85.87
2022-08-01T06:36:05.734Z,85.37
2022-08-01T06:37:06.877Z,84.87
2022-08-01T06:38:05.707Z,84.97
2022-08-01T06:39:05.654Z,84.57
2022-08-01T06:40:05.648Z,84.37
2022-08-01T06:41:05.611Z,84.97
2022-08-01T06:42:05.799Z,84.87
2022-08-01T06:43:05.603Z,84.33
2022-08-01T06:44:05.596Z,84.13
2022-08-01T06:45:05.574Z,84.13
2022-08-01T06:46:05.564Z,84.03
2022-08-01T06:47:05.562Z,84.03
2022-08-01T06:48:05.544Z,83.63
2022-08-01T06:49:05.588Z,83.63
2022-08-01T06:50:05.491Z,83.39
2022-08-01T06:51:05.496Z,83.59
2022-08-01T06:52:05.850Z,83.79
2022-08-01T06:53:05.477Z,83.59
2022-08-01T06:54:05.461Z,83.79
2022-08-01T06:55:05.432Z,83.79
2022-08-01T06:56:05.449Z,83.09
2022-08-01T06:57:05.436Z,83.09
2022-08-01T06:58:05.404Z,82.99
2022-08-01T06:59:05.371Z,83.29
2022-08-01T07:00:05.389Z,83.43
2022-08-01T07:01:05.439Z,83.53
2022-08-01T07:02:05.698Z,83.29
2022-08-01T07:03:05.330Z,83.69
2022-08-01T07:04:05.337Z,83.39
2022-08-01T07:05:05.299Z,83.43
2022-08-01T07:06:05.312Z,83.59
2022-08-01T07:07:05.284Z,83.13
2022-08-01T07:08:05.260Z,83.03
2022-08-01T07:09:09.585Z,83.23
2022-08-01T07:10:06.232Z,83.53
2022-08-01T07:11:05.253Z,83.93
2022-08-01T07:12:05.451Z,84.03
2022-08-01T07:13:05.201Z,84.23
2022-08-01T07:14:05.181Z,83.83
2022-08-01T07:15:05.252Z,83.53
2022-08-01T07:16:05.170Z,83.53
2022-08-01T07:17:05.159Z,83.29
2022-08-01T07:18:05.174Z,83.19
2022-08-01T07:19:05.133Z,83.19
2022-08-01T07:20:05.107Z,83.09
2022-08-01T07:21:05.119Z,82.69
2022-08-01T07:22:05.484Z,82.85
2022-08-01T07:23:05.059Z,82.55
2022-08-01T07:24:13.425Z,82.55
2022-08-01T07:25:06.050Z,82.35
2022-08-01T07:26:05.043Z,82.31
2022-08-01T07:27:23.899Z,81.81
2022-08-01T07:28:06.031Z,81.51
2022-08-01T07:29:05.002Z,81.61
2022-08-01T07:30:04.991Z,81.12
2022-08-01T07:31:04.959Z,81.61
2022-08-01T07:32:05.224Z,81.61
2022-08-01T07:33:04.946Z,81.81
2022-08-01T07:34:04.943Z,81.92
2022-08-01T07:35:04.916Z,81.31
2022-08-01T07:36:04.914Z,80.77
2022-08-01T07:37:04.888Z,81.07
2022-08-01T07:38:04.888Z,81.18
2022-08-01T07:39:04.851Z,80.74
2022-08-01T07:40:04.944Z,80.54
2022-08-01T07:41:04.842Z,80.24
2022-08-01T07:42:07.587Z,79.68
2022-08-01T07:43:04.811Z,79.78
2022-08-01T07:44:04.988Z,79.11
2022-08-01T07:45:04.769Z,79.82
2022-08-01T07:46:04.790Z,80.71
2022-08-01T07:47:04.771Z,81.15
2022-08-01T07:48:04.759Z,81.25
2022-08-01T07:49:04.776Z,81.45
2022-08-01T07:50:04.737Z,81.56
2022-08-01T07:51:04.707Z,80.95
2022-08-01T07:52:04.710Z,81.25
2022-08-01T07:53:04.694Z,81.45
2022-08-01T07:54:04.659Z,81.05
2022-08-01T07:55:04.650Z,81.12
2022-08-01T07:56:04.636Z,80.82
2022-08-01T07:57:04.650Z,80.21
2022-08-01T07:58:04.619Z,80.32
2022-08-01T07:59:04.600Z,80.32
2022-08-01T08:00:04.623Z,79.58
2022-08-01T08:01:04.599Z,79.08
2022-08-01T08:02:05.035Z,78.88
2022-08-01T08:03:04.581Z,78.44
2022-08-01T08:04:04.588Z,77.94
2022-08-01T08:05:04.529Z,78.30
2022-08-01T08:06:04.511Z,78.41
2022-08-01T08:07:04.876Z,78.27
2022-08-01T08:08:04.510Z,76.97
2022-08-01T08:09:04.486Z,75.57
2022-08-01T08:10:04.471Z,75.07
2022-08-01T08:11:04.450Z,75.71
2022-08-01T08:12:04.788Z,75.51
2022-08-01T08:13:04.433Z,75.81
2022-08-01T08:14:04.406Z,75.91
2022-08-01T08:15:04.410Z,76.41
2022-08-01T08:16:04.386Z,76.21
2022-08-01T08:17:04.358Z,76.31
2022-08-01T08:18:04.367Z,76.71
2022-08-01T08:19:04.362Z,77.21
2022-08-01T08:20:04.341Z,76.41
2022-08-01T08:21:06.825Z,76.71
2022-08-01T08:22:04.675Z,77.11
2022-08-01T08:23:04.330Z,76.21
2022-08-01T08:24:04.279Z,75.61
2022-08-01T08:25:04.279Z,75.97
2022-08-01T08:26:04.288Z,75.57
2022-08-01T08:27:04.261Z,75.67
2022-08-01T08:28:04.229Z,74.98
2022-08-01T08:29:04.211Z,75.78
2022-08-01T08:30:04.208Z,75.37
2022-08-01T08:31:04.177Z,75.11
2022-08-01T08:32:04.344Z,74.91
2022-08-01T08:33:04.171Z,75.11
2022-08-01T08:34:04.138Z,76.01
2022-08-01T08:35:04.125Z,75.91
2022-08-01T08:36:04.124Z,76.27
2022-08-01T08:37:04.097Z,75.97
2022-08-01T08:38:04.100Z,75.34
2022-08-01T08:39:04.101Z,75.14
2022-08-01T08:40:04.081Z,75.24
2022-08-01T08:41:04.048Z,73.74
2022-08-01T08:42:04.370Z,74.24
2022-08-01T08:43:04.037Z,74.58
2022-08-01T08:44:04.016Z,74.77
2022-08-01T08:45:04.010Z,73.98
2022-08-01T08:46:03.984Z,73.88
2022-08-01T08:47:03.981Z,74.02
2022-08-01T08:48:03.990Z,75.01
2022-08-01T08:49:03.984Z,74.81
2022-08-01T08:50:03.962Z,74.98
2022-08-01T08:51:03.957Z,75.18
2022-08-01T08:52:04.337Z,75.97
2022-08-01T08:53:06.548Z,74.28
2022-08-01T08:54:03.901Z,74.28
2022-08-01T08:55:03.880Z,74.54
2022-08-01T08:56:03.859Z,74.04
2022-08-01T08:57:03.848Z,74.74
2022-08-01T08:58:03.834Z,74.04
2022-08-01T08:59:03.850Z,74.84
2022-08-01T09:00:03.803Z,74.64
2022-08-01T09:01:03.797Z,74.34
2022-08-01T09:02:03.790Z,74.51
2022-08-01T09:03:03.849Z,74.21
2022-08-01T09:04:03.773Z,73.11
2022-08-01T09:05:03.768Z,72.95
2022-08-01T09:06:03.740Z,73.55
2022-08-01T09:07:03.719Z,73.85
2022-08-01T09:08:03.700Z,74.44
2022-08-01T09:09:03.720Z,74.18
2022-08-01T09:10:03.676Z,74.18
2022-08-01T09:11:03.680Z,73.28
2022-08-01T09:12:03.673Z,73.78
2022-08-01T09:13:03.657Z,74.28
2022-08-01T09:14:03.653Z,75.18
2022-08-01T09:15:03.645Z,74.68
2022-08-01T09:16:03.605Z,75.18
2022-08-01T09:17:03.601Z,74.68
2022-08-01T09:18:03.590Z,74.77
2022-08-01T09:19:03.585Z,74.88
2022-08-01T09:20:03.559Z,75.97
2022-08-01T09:21:03.581Z,74.98
2022-08-01T09:22:03.833Z,74.88
2022-08-01T09:23:03.525Z,75.07
2022-08-01T09:24:03.520Z,74.98
2022-08-01T09:25:03.542Z,75.94
2022-08-01T09:26:03.467Z,73.94
2022-08-01T09:27:03.599Z,72.85
2022-08-01T09:28:03.467Z,73.61
2022-08-01T09:29:03.470Z,72.81
2022-08-01T09:30:03.439Z,72.61
2022-08-01T09:31:03.417Z,72.78
2022-08-01T09:32:03.885Z,71.88
2022-08-01T09:33:11.426Z,71.09
2022-08-01T09:34:04.400Z,71.19
2022-08-01T09:35:03.390Z,71.28
2022-08-01T09:36:03.348Z,70.89
2022-08-01T09:37:03.360Z,71.15
2022-08-01T09:38:03.326Z,71.45
2022-08-01T09:39:03.341Z,71.25
2022-08-01T09:40:03.334Z,71.15
2022-08-01T09:41:03.295Z,71.45
2022-08-01T09:42:03.287Z,70.95
2022-08-01T09:43:03.283Z,70.75
2022-08-01T09:44:03.299Z,71.39
2022-08-01T09:45:03.235Z,71.88
2022-08-01T09:46:03.216Z,71.78
2022-08-01T09:47:07.564Z,72.68
2022-08-01T09:48:03.194Z,72.38
2022-08-01T09:49:03.240Z,72.28
2022-08-01T09:50:10.200Z,72.68
2022-08-01T09:51:09.842Z,71.92
2022-08-01T09:52:04.156Z,72.41
2022-08-01T09:53:03.147Z,71.81
2022-08-01T09:54:03.140Z,71.42
2022-08-01T09:55:03.116Z,72.15
2022-08-01T09:56:03.095Z,72.25
2022-08-01T09:57:03.413Z,72.55
2022-08-01T09:58:03.089Z,72.11
2022-08-01T09:59:03.085Z,73.01
2022-08-01T10:00:03.109Z,72.81
2022-08-01T10:01:03.045Z,72.31
2022-08-01T10:02:03.048Z,73.01
2022-08-01T10:03:10.472Z,73.01
2022-08-01T10:04:04.016Z,72.61
2022-08-01T10:05:07.586Z,73.61
2022-08-01T10:06:03.991Z,72.91
2022-08-01T10:07:03.067Z,72.78
2022-08-01T10:08:02.969Z,72.08
2022-08-01T10:09:04.739Z,71.88
2022-08-01T10:10:02.937Z,71.58
2022-08-01T10:11:02.920Z,72.68
2022-08-01T10:12:02.900Z,71.69
2022-08-01T10:13:03.380Z,71.69
2022-08-01T10:14:02.898Z,71.28
2022-08-01T10:15:02.872Z,70.68
2022-08-01T10:16:02.878Z,70.68
2022-08-01T10:17:05.204Z,71.88
2022-08-01T10:18:02.831Z,72.18
2022-08-01T10:19:02.829Z,71.75
2022-08-01T10:20:02.805Z,72.34
2022-08-01T10:21:02.798Z,71.55
2022-08-01T10:22:03.773Z,71.45
2022-08-01T10:23:05.625Z,71.25
2022-08-01T10:24:03.384Z,71.05
2022-08-01T10:25:02.771Z,70.06
2022-08-01T10:26:02.723Z,70.15
2022-08-01T10:27:05.956Z,70.06
2022-08-01T10:28:03.698Z,70.65
2022-08-01T10:29:02.700Z,70.06
2022-08-01T10:30:07.445Z,70.36
2022-08-01T10:31:03.678Z,70.95
2022-08-01T10:32:05.569Z,70.03
2022-08-01T10:33:02.638Z,69.92
2022-08-01T10:34:02.626Z,69.43
2022-08-01T10:35:06.816Z,69.53
2022-08-01T10:36:02.593Z,69.56
2022-08-01T10:37:02.661Z,70.12
2022-08-01T10:38:02.564Z,70.92
2022-08-01T10:39:02.555Z,69.32
2022-08-01T10:40:28.941Z,69.53
2022-08-01T10:41:06.527Z,68.83
2022-08-01T10:42:05.855Z,69.32
2022-08-01T10:44:11.937Z,69.03
2022-08-01T10:45:11.948Z,67.83
2022-08-01T10:46:12.664Z,67.80
2022-08-01T10:47:11.892Z,69.09
2022-08-01T10:48:11.900Z,66.71
2022-08-01T10:49:11.940Z,67.30
2022-08-01T10:50:11.898Z,67.40
2022-08-01T10:51:17.552Z,66.71
2022-08-01T10:52:12.845Z,66.21
2022-08-01T10:53:16.144Z,66.21
2022-08-01T10:54:12.818Z,66.88
2022-08-01T10:55:11.824Z,65.91
2022-08-01T10:56:15.060Z,65.48
2022-08-01T10:57:12.777Z,65.58
2022-08-01T10:58:15.733Z,65.58
2022-08-01T10:59:12.089Z,65.78
2022-08-01T11:00:11.742Z,65.28
2022-08-01T11:01:11.788Z,66.18
2022-08-01T11:02:11.705Z,66.78
2022-08-01T11:03:11.704Z,65.58
2022-08-01T11:04:16.572Z,66.78
2022-08-01T11:05:14.381Z,66.78
2022-08-01T11:06:11.679Z,66.81
2022-08-01T11:07:11.639Z,67.00
2022-08-01T11:08:11.636Z,67.60
2022-08-01T11:09:11.627Z,67.04
2022-08-01T11:10:14.745Z,67.44
2022-08-01T11:11:11.593Z,67.74
2022-08-01T11:12:13.232Z,67.24
2022-08-01T11:13:11.586Z,67.54
2022-08-01T11:14:11.542Z,68.23
2022-08-01T11:15:11.524Z,67.24
2022-08-01T11:16:16.221Z,66.74
2022-08-01T11:17:12.517Z,67.04
2022-08-01T11:18:11.519Z,66.84
2022-08-01T11:19:11.481Z,66.14
2022-08-01T11:20:11.470Z,66.64
2022-08-01T11:21:57.130Z,67.30
2022-08-01T11:22:12.458Z,66.71
2022-08-01T11:23:11.423Z,65.52
2022-08-01T11:24:11.439Z,66.01
2022-08-01T11:25:11.404Z,67.67
2022-08-01T11:26:11.429Z,67.97
2022-08-01T11:27:11.407Z,66.94
2022-08-01T11:28:15.089Z,65.45
2022-08-01T11:29:20.397Z,64.73
2022-08-01T11:30:13.072Z,64.53
2022-08-01T11:31:13.873Z,63.31
2022-08-01T11:32:11.315Z,62.12
2022-08-01T11:33:12.137Z,63.01
2022-08-01T11:34:11.284Z,63.37
2022-08-01T11:35:11.295Z,61.39
2022-08-01T11:36:11.274Z,61.99
2022-08-01T11:37:11.514Z,60.96
2022-08-01T11:38:11.247Z,60.00
2022-08-01T11:39:13.622Z,61.10
2022-08-01T11:40:11.261Z,61.16
2022-08-01T11:41:11.232Z,60.30
2022-08-01T11:42:11.203Z,60.60
2022-08-01T11:43:11.166Z,60.89
2022-08-01T11:44:11.676Z,60.80
2022-08-01T11:45:15.440Z,60.20
2022-08-01T11:46:12.166Z,60.07
2022-08-01T11:47:13.276Z,61.19
2022-08-01T11:48:11.100Z,61.49
2022-08-01T11:49:11.147Z,61.22
2022-08-01T11:50:11.175Z,61.32
2022-08-01T11:51:15.856Z,61.75
2022-08-01T11:52:12.060Z,61.75
2022-08-01T11:53:11.267Z,62.27
2022-08-01T11:54:11.049Z,62.18
2022-08-01T11:55:11.510Z,62.47
2022-08-01T11:56:11.035Z,62.07
2022-08-01T11:57:11.084Z,63.00
2022-08-01T11:58:22.289Z,62.50
2022-08-01T11:59:15.156Z,62.30
2022-08-01T12:00:11.018Z,62.60
2022-08-01T12:01:10.951Z,62.70
2022-08-01T12:02:11.022Z,62.77
2022-08-01T12:03:13.143Z,63.17
2022-08-01T12:04:11.916Z,61.48
2022-08-01T12:05:12.368Z,62.47
2022-08-01T12:06:10.899Z,61.88
2022-08-01T12:07:10.867Z,61.25
2022-08-01T12:08:10.868Z,61.65
2022-08-01T12:09:12.165Z,62.54
2022-08-01T12:10:10.934Z,63.24
2022-08-01T12:11:10.825Z,61.94
2022-08-01T12:12:10.805Z,62.74
2022-08-01T12:13:10.789Z,63.13
2022-08-01T12:14:10.763Z,63.64
2022-08-01T12:15:10.773Z,63.31
2022-08-01T12:16:10.776Z,62.21
2022-08-01T12:17:10.722Z,61.62
2022-08-01T12:18:10.722Z,62.12
2022-08-01T12:19:11.787Z,61.45
2022-08-01T12:20:10.706Z,60.36
2022-08-01T12:21:10.693Z,61.12
2022-08-01T12:22:10.667Z,62.41
2022-08-01T12:23:10.652Z,60.63
2022-08-01T12:24:10.677Z,59.93
2022-08-01T12:25:10.637Z,60.13
2022-08-01T12:26:28.575Z,60.56
2022-08-01T12:27:11.604Z,61.72
2022-08-01T12:28:10.599Z,62.12
2022-08-01T12:29:10.584Z,61.32
2022-08-01T12:30:10.578Z,60.93
2022-08-01T12:31:10.553Z,61.82
2022-08-01T12:32:10.579Z,61.22
2022-08-01T12:33:11.483Z,61.22
2022-08-01T12:34:10.519Z,61.42
2022-08-01T12:35:11.635Z,63.01
2022-08-01T12:36:14.655Z,61.89
2022-08-01T12:37:10.907Z,61.69
2022-08-01T12:38:10.455Z,60.99
2022-08-01T12:39:10.446Z,61.19
2022-08-01T12:40:10.468Z,61.69
2022-08-01T12:41:10.503Z,60.53
2022-08-01T12:42:10.406Z,61.52
2022-08-01T12:43:15.773Z,61.72
2022-08-01T12:44:11.372Z,61.62
2022-08-01T12:45:10.370Z,61.32
2022-08-01T12:46:10.375Z,59.04
2022-08-01T12:47:10.341Z,61.32
2022-08-01T12:48:10.347Z,60.93
2022-08-01T12:49:10.370Z,59.44
2022-08-01T12:50:10.294Z,60.13
2022-08-01T12:51:10.291Z,59.44
2022-08-01T12:52:13.212Z,59.44
2022-08-01T12:53:10.262Z,59.76